HOURLY OBS INDEX

036

Central West

BLACKALL AIRPORT

Site: 036034
Alt: 281.3m
165km SE of LONGREACH


  Time     Wind        Temp  DP   Baro     Rain since   Rain past  Vis(m), Cloud(base in m), Weather
  local        km/h                         9am  last   hr   10m    
Thu 09:00    E 13/ 17  13.4 -0.6  1024.6    0.0   0.0   0.0   0.0   ----- 
Thu 09:30  ENE 15/ 20  15.2 -0.5  1024.8    0.0   0.0   0.0   0.0   ----- 
Thu 10:00   NE 15/ 20  17.0  0.2  1024.7    0.0   0.0   0.0   0.0   ----- 
Thu 10:30   NE 15/ 22  18.3  0.0  1024.4    0.0   0.0   0.0   0.0   ----- 
Thu 11:00  NNE 17/ 22  19.6  0.1  1024.1    0.0   0.0   0.0   0.0   ----- 
Thu 11:30    N  9/ 13  20.4 -0.3  1023.7    0.0   0.0   0.0   0.0   ----- 
Thu 12:00    E 13/ 24  20.6 -1.2  1023.4    0.0   0.0   0.0   0.0   ----- 
Thu 12:30    E 15/ 24  21.1 -2.0  1022.7    0.0   0.0   0.0   0.0   ----- 
Thu 13:00  ENE  9/ 19  21.4 -2.5  1022.0    0.0   0.0   0.0   0.0   ----- 
Thu 13:30    E 13/ 19  22.1 -2.6  1021.4    0.0   0.0   0.0   0.0   ----- 
Thu 14:00  ENE  9/ 17  22.0 -4.1  1021.2    0.0   0.0   0.0   0.0   ----- 

LONGREACH AERO

Site: 036031
Alt: 192.2m
5km E of LONGREACH


  Time     Wind        Temp  DP   Baro     Rain since   Rain past  Vis(m), Cloud(base in m), Weather
  local        km/h                         9am  last   hr   10m    
Thu 09:00    E 11/ 13  13.5 -2.8  1023.6   ----  ----  ----   0.0   10000 
Thu 09:30  ENE 19/ 24  17.0 -0.7  1023.7    0.0  ----  ----   0.0   10000 
Thu 10:00   NE 19/ 28  18.5 -0.8  1023.6    0.0   0.0  ----   0.0   10000 
Thu 10:30   NE 22/ 30  19.5 -0.5  1023.5    0.0   0.0   0.0   0.0   10000 
Thu 11:00   NE 24/ 35  20.7  0.0  1023.2    0.0   0.0   0.0   0.0   10000 
Thu 11:30   NE 24/ 30  20.7  0.0  1022.7    0.0   0.0   0.0   0.0   10000 
Thu 12:00   NE 24/ 32  21.4 -0.6  1022.4    0.0   0.0   0.0   0.0   10000 
Thu 12:30   NE 17/ 28  22.0 -0.7  1021.8    0.0   0.0   0.0   0.0   10000 
Thu 13:00    E 20/ 26  22.0 -0.7  1021.3    0.0   0.0   0.0   0.0   10000 
Thu 13:30    E 19/ 32  22.2 -1.8  1020.8    0.0   0.0   0.0   0.0   10000 
Thu 14:00  ESE 20/ 28  22.9 -1.2  1020.3    0.0   0.0   0.0   0.0   10000